Time;durP1;ratioP1;P1;durP2;ratioP2;P2;SDS_P1;SDS_P2;PMS_P1;PMS_P2;Temp;Humidity;BMP_temperature;BMP_pressure;BME280_temperature;BME280_humidity;BME280_pressure;Samples;Min_cycle;Max_cycle;Signal;HPM_P1;HPM_P2
2022/06/09 00:01:39;;;;;;;;;;;;;;;;;;5063428;28;1960;-78
2022/06/09 00:04:04;;;;;;;;;;;;;;;;;;5065490;28;1223;-76
2022/06/09 00:06:34;;;;;;;;;;;;;;;;;;5065074;28;1368;-76
2022/06/09 00:09:00;;;;;;;;;;;;;;;;;;5064705;28;1221;-75
2022/06/09 00:11:26;;;;;;;;;;;;;;;;;;5079892;28;1352;-76
2022/06/09 00:13:51;;;;;;;;;;;;;;;;;;5061008;28;1272;-76
2022/06/09 00:16:17;;;;;;;;;;;;;;;;;;5063792;28;1135;-76
2022/06/09 00:18:42;;;;;;;;;;;;;;;;;;5079875;28;1278;-75
2022/06/09 00:21:08;;;;;;;;;;;;;;;;;;5076552;28;1922;-75
2022/06/09 00:23:34;;;;;;;;;;;;;;;;;;5071587;28;1270;-76
2022/06/09 00:25:59;;;;;;;;;;;;;;;;;;5071292;28;1159;-76
2022/06/09 00:28:25;;;;;;;;;;;;;;;;;;5072595;28;1258;-76
2022/06/09 00:30:51;;;;;;;;;;;;;;;;;;5076897;28;1363;-76
2022/06/09 00:33:16;;;;;;;;;;;;;;;;;;5085937;28;1185;-77
2022/06/09 00:35:42;;;;;;;;;;;;;;;;;;5084432;28;1222;-77
2022/06/09 00:38:07;;;;;;;;;;;;;;;;;;5053038;28;1155;-77
2022/06/09 00:40:33;;;;;;;;;;;;;;;;;;5071087;28;1943;-76
2022/06/09 00:42:59;;;;;;;;;;;;;;;;;;5081384;28;1192;-75
2022/06/09 00:45:24;;;;;;;;;;;;;;;;;;5082877;28;1265;-75
2022/06/09 00:47:51;;;;;;;;;;;;;;;;;;5082251;28;1266;-75
2022/06/09 00:50:19;;;;;;;;;;;;;;;;;;5084144;28;1171;-76
2022/06/09 00:52:47;;;;;;;;;;;;;;;;;;5082542;28;1196;-75
2022/06/09 00:55:15;;;;;;;;;;;;;;;;;;5082519;28;1419;-74
2022/06/09 00:57:55;;;;;;;;;;;;;;;;;;5081109;28;1284;-75
2022/06/09 01:00:22;;;;;;;;;;;;;;;;;;5086055;28;1906;-77
2022/06/09 01:02:48;;;;;;;;;;;;;;;;;;5082773;28;1354;-77
2022/06/09 01:05:15;;;;;;;;;;;;;;;;;;5084654;28;1465;-77
2022/06/09 01:07:42;;;;;;;;;;;;;;;;;;5085538;28;1515;-77
2022/06/09 01:10:08;;;;;;;;;;;;;;;;;;5082282;28;1418;-78
2022/06/09 01:12:35;;;;;;;;;;;;;;;;;;5082267;28;1198;-77
2022/06/09 01:15:20;;;;;;;;;;;;;;;;;;5082271;28;1230;-78
2022/06/09 01:17:58;;;;;;;;;;;;;;;;;;5082129;28;1084;-77
2022/06/09 01:20:42;;;;;;;;;;;;;;;;;;5084934;28;1917;-77
2022/06/09 01:23:29;;;;;;;;;;;;;;;;;;5067766;28;1229;-77
2022/06/09 01:25:54;;;;;;;;;;;;;;;;;;5062196;28;1281;-77
2022/06/09 01:28:25;;;;;;;;;;;;;;;;;;5061672;28;1210;-75
2022/06/09 01:31:02;;;;;;;;;;;;;;;;;;5079643;28;1269;-78
2022/06/09 01:33:27;;;;;;;;;;;;;;;;;;5084849;28;1374;-77
2022/06/09 01:36:08;;;;;;;;;;;;;;;;;;5084581;28;1191;-77
2022/06/09 01:38:52;;;;;;;;;;;;;;;;;;5082587;28;1241;-77
2022/06/09 01:41:18;;;;;;;;;;;;;;;;;;5068851;28;1898;-78
2022/06/09 01:43:46;;;;;;;;;;;;;;;;;;5041421;28;1303;-76
2022/06/09 01:46:15;;;;;;;;;;;;;;;;;;5061613;28;1306;-76
2022/06/09 01:48:40;;;;;;;;;;;;;;;;;;5073517;28;1195;-75
2022/06/09 01:51:06;;;;;;;;;;;;;;;;;;5063418;28;1304;-76
2022/06/09 01:53:35;;;;;;;;;;;;;;;;;;5063160;28;1108;-75
2022/06/09 01:56:06;;;;;;;;;;;;;;;;;;5063396;28;1226;-75
2022/06/09 01:58:36;;;;;;;;;;;;;;;;;;5067417;28;1139;-75
2022/06/09 02:01:03;;;;;;;;;;;;;;;;;;5061811;28;1910;-76
2022/06/09 02:03:32;;;;;;;;;;;;;;;;;;5062840;28;1246;-76
2022/06/09 02:05:58;;;;;;;;;;;;;;;;;;5063735;28;1051;-76
2022/06/09 02:08:24;;;;;;;;;;;;;;;;;;5065415;28;1333;-77
2022/06/09 02:10:54;;;;;;;;;;;;;;;;;;5062052;28;1285;-77
2022/06/09 02:13:29;;;;;;;;;;;;;;;;;;5062495;28;1120;-77
2022/06/09 02:15:57;;;;;;;;;;;;;;;;;;5079988;28;1065;-77
2022/06/09 02:18:24;;;;;;;;;;;;;;;;;;5080621;28;1252;-77
2022/06/09 02:20:55;;;;;;;;;;;;;;;;;;5083256;28;1920;-77
2022/06/09 02:23:21;;;;;;;;;;;;;;;;;;5086869;28;1182;-77
2022/06/09 02:25:46;;;;;;;;;;;;;;;;;;5066871;28;1206;-77
2022/06/09 02:28:11;;;;;;;;;;;;;;;;;;5068498;28;1198;-77
2022/06/09 02:30:38;;;;;;;;;;;;;;;;;;5087673;28;1237;-77
2022/06/09 02:33:03;;;;;;;;;;;;;;;;;;5085964;28;1250;-78
2022/06/09 02:35:29;;;;;;;;;;;;;;;;;;5059980;28;1349;-77
2022/06/09 02:37:54;;;;;;;;;;;;;;;;;;5067063;28;1104;-77
2022/06/09 02:40:19;;;;;;;;;;;;;;;;;;5065996;28;1893;-77
2022/06/09 02:42:48;;;;;;;;;;;;;;;;;;5082256;28;1211;-77
2022/06/09 02:45:14;;;;;;;;;;;;;;;;;;5087921;28;1187;-77
2022/06/09 02:47:40;;;;;;;;;;;;;;;;;;5085400;28;1337;-77
2022/06/09 02:50:06;;;;;;;;;;;;;;;;;;5084381;28;1285;-78
2022/06/09 02:52:31;;;;;;;;;;;;;;;;;;5086496;28;1305;-77
2022/06/09 02:54:56;;;;;;;;;;;;;;;;;;5082888;28;1280;-77
2022/06/09 02:57:23;;;;;;;;;;;;;;;;;;5067989;28;1313;-77
2022/06/09 02:59:50;;;;;;;;;;;;;;;;;;5084439;28;1898;-78
2022/06/09 03:02:15;;;;;;;;;;;;;;;;;;5067980;28;1230;-75
2022/06/09 03:04:41;;;;;;;;;;;;;;;;;;5065206;28;1206;-77
2022/06/09 03:07:06;;;;;;;;;;;;;;;;;;5068309;28;1320;-75
2022/06/09 03:09:31;;;;;;;;;;;;;;;;;;5084744;28;1195;-75
2022/06/09 03:11:56;;;;;;;;;;;;;;;;;;5085549;28;1187;-74
2022/06/09 03:14:21;;;;;;;;;;;;;;;;;;5066885;28;1199;-76
2022/06/09 03:16:51;;;;;;;;;;;;;;;;;;5048811;28;1212;-76
2022/06/09 03:19:18;;;;;;;;;;;;;;;;;;5066291;28;1973;-76
2022/06/09 03:21:43;;;;;;;;;;;;;;;;;;5066229;28;1170;-76
2022/06/09 03:24:08;;;;;;;;;;;;;;;;;;5046742;28;1328;-75
2022/06/09 03:26:34;;;;;;;;;;;;;;;;;;5051664;28;1266;-76
2022/06/09 03:28:59;;;;;;;;;;;;;;;;;;5062224;28;1141;-75
2022/06/09 03:31:24;;;;;;;;;;;;;;;;;;5067281;28;1226;-75
2022/06/09 03:33:59;;;;;;;;;;;;;;;;;;5061890;28;1261;-75
2022/06/09 03:36:25;;;;;;;;;;;;;;;;;;5067615;28;1295;-76
2022/06/09 03:38:51;;;;;;;;;;;;;;;;;;5047437;28;1423;-75
2022/06/09 03:41:17;;;;;;;;;;;;;;;;;;5067686;28;1943;-75
2022/06/09 03:43:42;;;;;;;;;;;;;;;;;;5067032;28;1147;-75
2022/06/09 03:46:10;;;;;;;;;;;;;;;;;;5066434;28;1306;-75
2022/06/09 03:48:35;;;;;;;;;;;;;;;;;;5065719;28;1247;-76
2022/06/09 03:51:00;;;;;;;;;;;;;;;;;;5065312;28;1176;-76
2022/06/09 03:53:47;;;;;;;;;;;;;;;;;;5049796;28;1234;-75
2022/06/09 03:56:13;;;;;;;;;;;;;;;;;;5066948;28;1290;-75
2022/06/09 03:58:38;;;;;;;;;;;;;;;;;;5064783;28;1317;-77
2022/06/09 04:01:04;;;;;;;;;;;;;;;;;;5065771;28;1897;-76
2022/06/09 04:03:30;;;;;;;;;;;;;;;;;;5047351;28;1242;-77
2022/06/09 04:05:56;;;;;;;;;;;;;;;;;;5066119;28;1265;-77
2022/06/09 04:08:22;;;;;;;;;;;;;;;;;;5067017;28;1246;-77
2022/06/09 04:10:48;;;;;;;;;;;;;;;;;;5065294;28;1248;-77
2022/06/09 04:13:15;;;;;;;;;;;;;;;;;;5075845;28;1233;-77
2022/06/09 04:15:40;;;;;;;;;;;;;;;;;;5087077;28;1016;-77
2022/06/09 04:18:06;;;;;;;;;;;;;;;;;;5084215;28;1144;-77
2022/06/09 04:20:31;;;;;;;;;;;;;;;;;;5087916;28;1909;-76
2022/06/09 04:22:57;;;;;;;;;;;;;;;;;;5068265;28;1337;-75
2022/06/09 04:25:22;;;;;;;;;;;;;;;;;;5065156;28;1169;-76
2022/06/09 04:27:48;;;;;;;;;;;;;;;;;;5084456;28;1371;-78
2022/06/09 04:30:14;;;;;;;;;;;;;;;;;;5068096;28;1246;-77
2022/06/09 04:32:39;;;;;;;;;;;;;;;;;;5083878;28;1230;-78
2022/06/09 04:35:05;;;;;;;;;;;;;;;;;;5084319;28;1260;-77
2022/06/09 04:40:14;;;;;;;;;;;;;;;;;;5083410;28;1894;-77
2022/06/09 04:42:40;;;;;;;;;;;;;;;;;;5084535;28;1214;-77
2022/06/09 04:45:05;;;;;;;;;;;;;;;;;;5084095;28;1308;-75
2022/06/09 04:47:30;;;;;;;;;;;;;;;;;;5066384;28;1333;-77
2022/06/09 04:49:57;;;;;;;;;;;;;;;;;;5085866;28;1158;-77
2022/06/09 04:52:23;;;;;;;;;;;;;;;;;;5074302;28;1297;-75
2022/06/09 04:54:49;;;;;;;;;;;;;;;;;;5047250;28;1169;-75
2022/06/09 04:57:14;;;;;;;;;;;;;;;;;;5046149;28;1340;-75
2022/06/09 04:59:39;;;;;;;;;;;;;;;;;;5064635;28;1980;-77
2022/06/09 05:02:04;;;;;;;;;;;;;;;;;;5047119;28;1309;-77
2022/06/09 05:04:29;;;;;;;;;;;;;;;;;;5063309;28;1152;-77
2022/06/09 05:06:55;;;;;;;;;;;;;;;;;;5049454;28;1195;-77
2022/06/09 05:09:20;;;;;;;;;;;;;;;;;;5062681;28;1081;-77
2022/06/09 05:11:45;;;;;;;;;;;;;;;;;;5049302;28;1258;-77
2022/06/09 05:14:12;;;;;;;;;;;;;;;;;;5061283;28;1305;-77
2022/06/09 05:16:38;;;;;;;;;;;;;;;;;;5064649;28;1341;-77
2022/06/09 05:19:03;;;;;;;;;;;;;;;;;;5082757;28;1399;-77
2022/06/09 05:21:29;;;;;;;;;;;;;;;;;;5085891;28;1960;-78
2022/06/09 05:23:54;;;;;;;;;;;;;;;;;;5082819;28;1211;-77
2022/06/09 05:26:21;;;;;;;;;;;;;;;;;;5067884;28;1225;-77
2022/06/09 05:28:46;;;;;;;;;;;;;;;;;;5066195;28;1305;-77
2022/06/09 05:31:12;;;;;;;;;;;;;;;;;;5084638;28;1174;-78
2022/06/09 05:33:41;;;;;;;;;;;;;;;;;;5083711;28;1234;-78
2022/06/09 05:36:06;;;;;;;;;;;;;;;;;;5066577;28;1313;-77
2022/06/09 05:46:54;;;;;;;;;;;;;;;;;;5077080;28;1044;-78
2022/06/09 05:49:19;;;;;;;;;;;;;;;;;;5070938;28;1145;-78
2022/06/09 05:51:47;;;;;;;;;;;;;;;;;;5064985;28;1293;-77
2022/06/09 05:54:13;;;;;;;;;;;;;;;;;;5060467;28;1207;-77
2022/06/09 05:56:38;;;;;;;;;;;;;;;;;;5069509;28;1354;-77
2022/06/09 05:59:05;;;;;;;;;;;;;;;;;;5064534;28;1175;-78
2022/06/09 06:01:30;;;;;;;;;;;;;;;;;;5070718;28;1901;-77
2022/06/09 06:03:56;;;;;;;;;;;;;;;;;;5065663;28;1238;-77
2022/06/09 06:06:33;;;;;;;;;;;;;;;;;;5063627;28;1275;-77
2022/06/09 06:08:58;;;;;;;;;;;;;;;;;;5050603;28;1293;-78
2022/06/09 06:11:24;;;;;;;;;;;;;;;;;;5071121;28;1308;-76
2022/06/09 06:13:50;;;;;;;;;;;;;;;;;;5068672;28;1336;-76
2022/06/09 06:16:15;;;;;;;;;;;;;;;;;;5086962;28;1084;-76
2022/06/09 06:18:41;;;;;;;;;;;;;;;;;;5067974;28;1246;-81
2022/06/09 06:21:09;;;;;;;;;;;;;;;;;;5080461;28;1901;-77
2022/06/09 06:23:35;;;;;;;;;;;;;;;;;;5063332;28;1162;-77
2022/06/09 06:26:01;;;;;;;;;;;;;;;;;;5066519;28;1093;-77
2022/06/09 06:28:26;;;;;;;;;;;;;;;;;;5045542;28;1178;-76
2022/06/09 06:30:52;;;;;;;;;;;;;;;;;;5067168;28;1285;-76
2022/06/09 06:33:17;;;;;;;;;;;;;;;;;;5061679;28;1194;-76
2022/06/09 06:35:43;;;;;;;;;;;;;;;;;;5066295;28;1345;-77
2022/06/09 06:38:10;;;;;;;;;;;;;;;;;;5066519;28;1213;-77
2022/06/09 06:40:35;;;;;;;;;;;;;;;;;;5047589;28;1951;-77
2022/06/09 06:43:01;;;;;;;;;;;;;;;;;;5065709;28;1353;-78
2022/06/09 06:45:27;;;;;;;;;;;;;;;;;;5085068;28;1152;-78
2022/06/09 06:47:54;;;;;;;;;;;;;;;;;;5087051;28;1348;-77
2022/06/09 06:50:20;;;;;;;;;;;;;;;;;;5084286;28;1420;-79
2022/06/09 06:52:45;;;;;;;;;;;;;;;;;;5086196;28;1336;-76
2022/06/09 06:55:13;;;;;;;;;;;;;;;;;;5084276;28;1164;-77
2022/06/09 06:57:38;;;;;;;;;;;;;;;;;;5084140;28;1240;-77
2022/06/09 07:00:05;;;;;;;;;;;;;;;;;;5084601;28;1905;-76
2022/06/09 07:02:30;;;;;;;;;;;;;;;;;;5060170;28;1303;-77
2022/06/09 07:04:56;;;;;;;;;;;;;;;;;;5064138;28;1274;-77
2022/06/09 07:07:21;;;;;;;;;;;;;;;;;;5062281;28;1329;-77
2022/06/09 07:09:46;;;;;;;;;;;;;;;;;;5083062;28;1293;-77
2022/06/09 07:12:12;;;;;;;;;;;;;;;;;;5065717;28;1207;-76
2022/06/09 07:14:37;;;;;;;;;;;;;;;;;;5064684;28;1363;-77
2022/06/09 07:17:03;;;;;;;;;;;;;;;;;;5049759;28;1163;-77
2022/06/09 07:19:29;;;;;;;;;;;;;;;;;;5062609;28;1961;-76
2022/06/09 07:21:54;;;;;;;;;;;;;;;;;;5086341;28;1194;-79
2022/06/09 07:24:19;;;;;;;;;;;;;;;;;;5064925;28;1207;-76
2022/06/09 07:26:45;;;;;;;;;;;;;;;;;;5067004;28;1211;-79
2022/06/09 07:29:10;;;;;;;;;;;;;;;;;;5064649;28;1112;-79
2022/06/09 07:31:36;;;;;;;;;;;;;;;;;;5067912;28;1317;-76
2022/06/09 07:34:01;;;;;;;;;;;;;;;;;;5066169;28;1179;-78
2022/06/09 07:36:26;;;;;;;;;;;;;;;;;;5049719;28;1210;-76
2022/06/09 07:38:52;;;;;;;;;;;;;;;;;;5076960;28;1294;-76
2022/06/09 07:41:20;;;;;;;;;;;;;;;;;;5069445;28;1949;-76
2022/06/09 07:43:45;;;;;;;;;;;;;;;;;;5066656;28;1354;-76
2022/06/09 07:46:11;;;;;;;;;;;;;;;;;;5063796;28;1219;-76
2022/06/09 07:48:37;;;;;;;;;;;;;;;;;;5043469;28;1282;-77
2022/06/09 07:51:02;;;;;;;;;;;;;;;;;;5052071;28;1277;-77
2022/06/09 07:53:34;;;;;;;;;;;;;;;;;;5081089;28;1199;-78
2022/06/09 07:55:59;;;;;;;;;;;;;;;;;;5069895;28;1313;-78
2022/06/09 07:58:24;;;;;;;;;;;;;;;;;;5064033;28;1105;-78
2022/06/09 08:00:50;;;;;;;;;;;;;;;;;;5068335;28;1914;-78
2022/06/09 08:03:21;;;;;;;;;;;;;;;;;;5083945;28;1286;-79
2022/06/09 08:05:46;;;;;;;;;;;;;;;;;;5084806;28;1364;-78
2022/06/09 08:08:12;;;;;;;;;;;;;;;;;;5072188;28;1158;-76
2022/06/09 08:10:39;;;;;;;;;;;;;;;;;;5043698;28;1271;-73
2022/06/09 08:13:05;;;;;;;;;;;;;;;;;;5065221;28;1109;-75
2022/06/09 08:15:31;;;;;;;;;;;;;;;;;;5065894;28;1201;-78
2022/06/09 08:18:00;;;;;;;;;;;;;;;;;;5083669;28;1198;-77
2022/06/09 08:20:27;;;;;;;;;;;;;;;;;;5083655;28;1942;-78
2022/06/09 08:22:58;;;;;;;;;;;;;;;;;;5084596;28;1182;-77
2022/06/09 08:25:23;;;;;;;;;;;;;;;;;;5082288;28;877;-77
2022/06/09 08:27:49;;;;;;;;;;;;;;;;;;5082781;28;1170;-77
2022/06/09 08:30:15;;;;;;;;;;;;;;;;;;5068017;28;1207;-77
2022/06/09 08:32:40;;;;;;;;;;;;;;;;;;5085669;28;1432;-75
2022/06/09 08:35:07;;;;;;;;;;;;;;;;;;5081589;28;1256;-75
2022/06/09 08:37:33;;;;;;;;;;;;;;;;;;5083379;28;1472;-74
2022/06/09 08:39:58;;;;;;;;;;;;;;;;;;5064999;28;1912;-75
2022/06/09 08:42:26;;;;;;;;;;;;;;;;;;5082081;28;1169;-75
2022/06/09 08:44:56;;;;;;;;;;;;;;;;;;5084860;28;1364;-76
2022/06/09 08:47:37;;;;;;;;;;;;;;;;;;5067890;28;1162;-76
2022/06/09 08:50:16;;;;;;;;;;;;;;;;;;5061984;28;1280;-75
2022/06/09 08:52:41;;;;;;;;;;;;;;;;;;5062913;28;1372;-76
2022/06/09 08:55:19;;;;;;;;;;;;;;;;;;5062148;28;1442;-75
2022/06/09 08:57:45;;;;;;;;;;;;;;;;;;5079883;28;1213;-75
2022/06/09 09:00:13;;;;;;;;;;;;;;;;;;5084210;28;1926;-75
2022/06/09 09:02:40;;;;;;;;;;;;;;;;;;5082451;28;1150;-75
2022/06/09 09:05:16;;;;;;;;;;;;;;;;;;5080950;28;1198;-75
2022/06/09 09:07:44;;;;;;;;;;;;;;;;;;5083483;28;1197;-76
2022/06/09 09:10:16;;;;;;;;;;;;;;;;;;5082848;28;1397;-74
2022/06/09 09:12:51;;;;;;;;;;;;;;;;;;5081538;28;1083;-75
2022/06/09 09:15:21;;;;;;;;;;;;;;;;;;5077428;28;1482;-81
2022/06/09 09:18:05;;;;;;;;;;;;;;;;;;5063728;28;1144;-82
2022/06/09 09:20:46;;;;;;;;;;;;;;;;;;5080227;28;1941;-81
2022/06/09 09:23:11;;;;;;;;;;;;;;;;;;5078290;28;1211;-83
2022/06/09 09:25:47;;;;;;;;;;;;;;;;;;5071061;28;1250;-81
2022/06/09 09:28:19;;;;;;;;;;;;;;;;;;5086153;28;1207;-79
2022/06/09 09:30:44;;;;;;;;;;;;;;;;;;5083443;28;1209;-79
2022/06/09 09:33:14;;;;;;;;;;;;;;;;;;5079494;28;1356;-85
2022/06/09 09:35:41;;;;;;;;;;;;;;;;;;5086348;28;1127;-82
2022/06/09 09:38:07;;;;;;;;;;;;;;;;;;5086489;28;1227;-80
2022/06/09 09:40:37;;;;;;;;;;;;;;;;;;5080109;28;1914;-82
2022/06/09 09:43:05;;;;;;;;;;;;;;;;;;5081909;28;1183;-84
2022/06/09 09:45:33;;;;;;;;;;;;;;;;;;5080721;28;1309;-80
2022/06/09 09:48:01;;;;;;;;;;;;;;;;;;5080923;28;1249;-84
2022/06/09 09:50:35;;;;;;;;;;;;;;;;;;5072682;28;1368;-83
2022/06/09 09:53:19;;;;;;;;;;;;;;;;;;5081561;28;1144;-84
2022/06/09 09:55:59;;;;;;;;;;;;;;;;;;5065932;28;1304;-83
2022/06/09 09:58:33;;;;;;;;;;;;;;;;;;5075442;28;1226;-84
2022/06/09 10:01:22;;;;;;;;;;;;;;;;;;5076095;28;1893;-83
2022/06/09 10:09:26;;;;;;;;;;;;;;;;;;5071240;28;1052;-82
2022/06/09 10:12:02;;;;;;;;;;;;;;;;;;5079237;28;1164;-80
2022/06/09 10:14:27;;;;;;;;;;;;;;;;;;5071780;28;1316;-81
2022/06/09 10:16:54;;;;;;;;;;;;;;;;;;5081252;28;1398;-84
2022/06/09 10:19:21;;;;;;;;;;;;;;;;;;5080125;28;1298;-85
2022/06/09 10:21:49;;;;;;;;;;;;;;;;;;5076942;28;1975;-85
2022/06/09 10:24:15;;;;;;;;;;;;;;;;;;5073378;28;1260;-83
2022/06/09 10:26:41;;;;;;;;;;;;;;;;;;5074009;28;1145;-84
2022/06/09 10:29:24;;;;;;;;;;;;;;;;;;5058542;28;1306;-83
2022/06/09 10:31:53;;;;;;;;;;;;;;;;;;5086527;28;1188;-84
2022/06/09 10:34:26;;;;;;;;;;;;;;;;;;5078059;28;1205;-85
2022/06/09 10:37:02;;;;;;;;;;;;;;;;;;5077518;28;1199;-84
2022/06/09 10:39:41;;;;;;;;;;;;;;;;;;5075634;28;1167;-84
2022/06/09 10:42:19;;;;;;;;;;;;;;;;;;5074406;28;1221;-85
2022/06/09 10:44:47;;;;;;;;;;;;;;;;;;5080224;28;1201;-84
2022/06/09 10:55:41;;;;;;;;;;;;;;;;;;5073621;28;1016;-84
2022/06/09 10:58:12;;;;;;;;;;;;;;;;;;5071538;28;1210;-84
2022/06/09 11:00:39;;;;;;;;;;;;;;;;;;5075452;28;1983;-84
2022/06/09 11:03:13;;;;;;;;;;;;;;;;;;5075986;28;1489;-83
2022/06/09 11:05:44;;;;;;;;;;;;;;;;;;5073120;28;1488;-84
2022/06/09 11:08:12;;;;;;;;;;;;;;;;;;5070404;28;1164;-84
2022/06/09 11:10:44;;;;;;;;;;;;;;;;;;5070462;28;1206;-83
2022/06/09 11:13:12;;;;;;;;;;;;;;;;;;5079512;28;1285;-84
2022/06/09 11:15:49;;;;;;;;;;;;;;;;;;5081151;28;1356;-83
2022/06/09 11:18:15;;;;;;;;;;;;;;;;;;5077116;28;1165;-82
2022/06/09 11:20:51;;;;;;;;;;;;;;;;;;5084287;28;1893;-84
2022/06/09 11:23:55;;;;;;;;;;;;;;;;;;5072589;28;1218;-84
2022/06/09 11:26:23;;;;;;;;;;;;;;;;;;5062531;28;1341;-83
2022/06/09 11:29:16;;;;;;;;;;;;;;;;;;5028884;28;1480;-82
2022/06/09 11:32:01;;;;;;;;;;;;;;;;;;5067244;28;1164;-85
2022/06/09 11:34:35;;;;;;;;;;;;;;;;;;5080638;28;1210;-86
2022/06/09 11:37:00;;;;;;;;;;;;;;;;;;5082733;28;1305;-83
2022/06/09 11:39:44;;;;;;;;;;;;;;;;;;5076888;28;1229;-84
2022/06/09 11:42:16;;;;;;;;;;;;;;;;;;5073778;28;1375;-77
2022/06/09 11:44:45;;;;;;;;;;;;;;;;;;5067764;28;1116;-77
2022/06/09 11:47:13;;;;;;;;;;;;;;;;;;5084346;28;1487;-77
2022/06/09 11:49:41;;;;;;;;;;;;;;;;;;5065190;28;1166;-80
2022/06/09 11:52:09;;;;;;;;;;;;;;;;;;5086031;28;1180;-77
2022/06/09 11:54:43;;;;;;;;;;;;;;;;;;5070283;28;1214;-77
2022/06/09 11:57:19;;;;;;;;;;;;;;;;;;5069538;28;1182;-77
2022/06/09 11:59:52;;;;;;;;;;;;;;;;;;5065522;28;1926;-77
2022/06/09 12:02:17;;;;;;;;;;;;;;;;;;5066996;28;1201;-79
2022/06/09 12:04:48;;;;;;;;;;;;;;;;;;5062988;28;1192;-81
2022/06/09 12:07:22;;;;;;;;;;;;;;;;;;5066393;28;1174;-74
2022/06/09 12:09:51;;;;;;;;;;;;;;;;;;5064831;28;1487;-75
2022/06/09 12:12:26;;;;;;;;;;;;;;;;;;5084659;28;1506;-77
2022/06/09 12:15:09;;;;;;;;;;;;;;;;;;5083560;28;1364;-75
2022/06/09 12:17:35;;;;;;;;;;;;;;;;;;5085743;28;1277;-77
2022/06/09 12:20:07;;;;;;;;;;;;;;;;;;5081718;28;1902;-74
2022/06/09 12:22:39;;;;;;;;;;;;;;;;;;5086101;28;1348;-74
2022/06/09 12:25:17;;;;;;;;;;;;;;;;;;5082029;28;1172;-76
2022/06/09 12:27:50;;;;;;;;;;;;;;;;;;5084740;28;1092;-76
2022/06/09 12:30:15;;;;;;;;;;;;;;;;;;5066865;28;1453;-77
2022/06/09 12:32:49;;;;;;;;;;;;;;;;;;5084870;28;1284;-76
2022/06/09 12:35:24;;;;;;;;;;;;;;;;;;5082782;28;1272;-76
2022/06/09 12:37:52;;;;;;;;;;;;;;;;;;5084459;28;1222;-76
2022/06/09 12:40:20;;;;;;;;;;;;;;;;;;5061168;28;1949;-76
2022/06/09 12:42:50;;;;;;;;;;;;;;;;;;5064474;28;1214;-76
2022/06/09 12:45:20;;;;;;;;;;;;;;;;;;5064780;28;1300;-76
2022/06/09 12:47:53;;;;;;;;;;;;;;;;;;5066615;28;1192;-76
2022/06/09 12:50:21;;;;;;;;;;;;;;;;;;5062508;28;1219;-75
2022/06/09 12:52:48;;;;;;;;;;;;;;;;;;5067949;28;1152;-76
2022/06/09 12:55:30;;;;;;;;;;;;;;;;;;5045840;28;1302;-76
2022/06/09 12:58:04;;;;;;;;;;;;;;;;;;5062286;28;1144;-76
2022/06/09 13:00:52;;;;;;;;;;;;;;;;;;5063865;28;1906;-75
2022/06/09 13:03:34;;;;;;;;;;;;;;;;;;5066000;28;1098;-75
2022/06/09 13:06:18;;;;;;;;;;;;;;;;;;5061801;28;1256;-75
2022/06/09 13:08:46;;;;;;;;;;;;;;;;;;5070464;28;1269;-75
2022/06/09 13:11:18;;;;;;;;;;;;;;;;;;5083861;28;1167;-75
2022/06/09 13:13:44;;;;;;;;;;;;;;;;;;5084567;28;1203;-75
2022/06/09 13:16:14;;;;;;;;;;;;;;;;;;5065022;28;1243;-74
2022/06/09 13:18:41;;;;;;;;;;;;;;;;;;5086904;28;1215;-75
2022/06/09 13:21:09;;;;;;;;;;;;;;;;;;5082536;28;1877;-75
2022/06/09 13:23:36;;;;;;;;;;;;;;;;;;5081708;28;1316;-74
2022/06/09 13:26:05;;;;;;;;;;;;;;;;;;5082541;28;1356;-75
2022/06/09 13:28:30;;;;;;;;;;;;;;;;;;5065899;28;1217;-74
2022/06/09 13:30:56;;;;;;;;;;;;;;;;;;5063865;28;1175;-75
2022/06/09 13:33:33;;;;;;;;;;;;;;;;;;5065311;28;1222;-75
2022/06/09 13:36:14;;;;;;;;;;;;;;;;;;5062570;28;1277;-75
2022/06/09 13:38:39;;;;;;;;;;;;;;;;;;5062955;28;888;-75
2022/06/09 13:41:25;;;;;;;;;;;;;;;;;;5045890;28;1973;-75
2022/06/09 13:43:53;;;;;;;;;;;;;;;;;;5061848;28;1146;-75
2022/06/09 13:46:24;;;;;;;;;;;;;;;;;;5063876;28;1190;-75
2022/06/09 13:48:58;;;;;;;;;;;;;;;;;;5064570;28;1526;-75
2022/06/09 13:51:29;;;;;;;;;;;;;;;;;;5061347;28;1047;-75
2022/06/09 13:54:16;;;;;;;;;;;;;;;;;;5063552;28;712;-76
2022/06/09 13:56:42;;;;;;;;;;;;;;;;;;5066098;28;1262;-75
2022/06/09 13:59:07;;;;;;;;;;;;;;;;;;5059763;28;1388;-75
2022/06/09 14:01:33;;;;;;;;;;;;;;;;;;5065122;28;1933;-75
2022/06/09 14:03:59;;;;;;;;;;;;;;;;;;5063186;28;1239;-75
2022/06/09 14:06:25;;;;;;;;;;;;;;;;;;5045724;28;1290;-75
2022/06/09 14:08:51;;;;;;;;;;;;;;;;;;5043111;28;1184;-75
2022/06/09 14:11:18;;;;;;;;;;;;;;;;;;5062211;28;1129;-75
2022/06/09 14:13:43;;;;;;;;;;;;;;;;;;5060919;28;1156;-75
2022/06/09 14:16:11;;;;;;;;;;;;;;;;;;5074406;28;1257;-74
2022/06/09 14:18:36;;;;;;;;;;;;;;;;;;5089143;28;1223;-73
2022/06/09 14:21:02;;;;;;;;;;;;;;;;;;5074848;28;1909;-74
2022/06/09 14:23:30;;;;;;;;;;;;;;;;;;5065166;28;1200;-73
2022/06/09 14:25:58;;;;;;;;;;;;;;;;;;5072469;28;1108;-74
2022/06/09 14:28:25;;;;;;;;;;;;;;;;;;5085483;28;1163;-74
2022/06/09 14:30:50;;;;;;;;;;;;;;;;;;5071781;28;1165;-75
2022/06/09 14:33:16;;;;;;;;;;;;;;;;;;5070145;28;1229;-75
2022/06/09 14:35:42;;;;;;;;;;;;;;;;;;5087381;28;1199;-75
2022/06/09 14:38:09;;;;;;;;;;;;;;;;;;5087827;28;1238;-74
2022/06/09 14:40:35;;;;;;;;;;;;;;;;;;5072777;28;1902;-75
2022/06/09 14:43:05;;;;;;;;;;;;;;;;;;5064962;28;1203;-76
2022/06/09 14:45:30;;;;;;;;;;;;;;;;;;5066538;28;1155;-76
2022/06/09 14:47:55;;;;;;;;;;;;;;;;;;5060955;28;1418;-76
2022/06/09 14:50:23;;;;;;;;;;;;;;;;;;5082992;28;1317;-77
2022/06/09 14:52:48;;;;;;;;;;;;;;;;;;5087083;28;1336;-77
2022/06/09 14:55:16;;;;;;;;;;;;;;;;;;5066230;28;1337;-76
2022/06/09 14:57:41;;;;;;;;;;;;;;;;;;5083979;28;1284;-76
2022/06/09 15:00:14;;;;;;;;;;;;;;;;;;5066137;28;1918;-76
2022/06/09 15:02:39;;;;;;;;;;;;;;;;;;5088284;28;1144;-76
2022/06/09 15:05:06;;;;;;;;;;;;;;;;;;5082902;28;1164;-76
2022/06/09 15:07:32;;;;;;;;;;;;;;;;;;5086826;28;1223;-76
2022/06/09 15:09:57;;;;;;;;;;;;;;;;;;5084593;28;1247;-76
2022/06/09 15:12:26;;;;;;;;;;;;;;;;;;5083017;28;1167;-76
2022/06/09 15:14:51;;;;;;;;;;;;;;;;;;5068907;28;1335;-76
2022/06/09 15:17:17;;;;;;;;;;;;;;;;;;5086207;28;1180;-76
2022/06/09 15:19:45;;;;;;;;;;;;;;;;;;5087659;28;1926;-77
2022/06/09 15:22:11;;;;;;;;;;;;;;;;;;5084497;28;1087;-76
2022/06/09 15:24:36;;;;;;;;;;;;;;;;;;5084552;28;1239;-77
2022/06/09 15:27:01;;;;;;;;;;;;;;;;;;5084281;28;1136;-76
2022/06/09 15:29:27;;;;;;;;;;;;;;;;;;5085156;28;1219;-76
2022/06/09 15:31:52;;;;;;;;;;;;;;;;;;5086194;28;1252;-76
2022/06/09 15:34:22;;;;;;;;;;;;;;;;;;5068679;28;1198;-77
2022/06/09 15:36:49;;;;;;;;;;;;;;;;;;5067316;28;1285;-75
2022/06/09 15:39:15;;;;;;;;;;;;;;;;;;5081474;28;1261;-76
2022/06/09 15:41:40;;;;;;;;;;;;;;;;;;5068942;28;1921;-77
2022/06/09 15:44:07;;;;;;;;;;;;;;;;;;5066320;28;1093;-76
2022/06/09 15:46:32;;;;;;;;;;;;;;;;;;5086354;28;1290;-76
2022/06/09 15:48:58;;;;;;;;;;;;;;;;;;5087824;28;1140;-76
2022/06/09 15:51:23;;;;;;;;;;;;;;;;;;5065300;28;1238;-76
2022/06/09 15:53:48;;;;;;;;;;;;;;;;;;5084025;28;1312;-76
2022/06/09 15:56:14;;;;;;;;;;;;;;;;;;5066911;28;1239;-77
2022/06/09 15:58:39;;;;;;;;;;;;;;;;;;5082608;28;1201;-76
2022/06/09 16:01:05;;;;;;;;;;;;;;;;;;5086113;28;1987;-75
2022/06/09 16:03:30;;;;;;;;;;;;;;;;;;5084426;28;1211;-74
2022/06/09 16:05:55;;;;;;;;;;;;;;;;;;5066344;28;1266;-74
2022/06/09 16:08:22;;;;;;;;;;;;;;;;;;5068347;28;1345;-74
2022/06/09 16:10:49;;;;;;;;;;;;;;;;;;5084339;28;1182;-74
2022/06/09 16:13:15;;;;;;;;;;;;;;;;;;5081623;28;1359;-74
2022/06/09 16:15:42;;;;;;;;;;;;;;;;;;5086281;28;1166;-74
2022/06/09 16:18:09;;;;;;;;;;;;;;;;;;5086754;28;1218;-74
2022/06/09 16:20:36;;;;;;;;;;;;;;;;;;5082732;28;1905;-74
2022/06/09 16:23:01;;;;;;;;;;;;;;;;;;5086837;28;1176;-74
2022/06/09 16:25:27;;;;;;;;;;;;;;;;;;5080383;28;1281;-74
2022/06/09 16:27:53;;;;;;;;;;;;;;;;;;5083166;28;1186;-74
2022/06/09 16:30:19;;;;;;;;;;;;;;;;;;5082077;28;1309;-77
2022/06/09 16:32:44;;;;;;;;;;;;;;;;;;5086443;28;1175;-75
2022/06/09 16:35:14;;;;;;;;;;;;;;;;;;5082637;28;1182;-75
2022/06/09 16:37:40;;;;;;;;;;;;;;;;;;5067899;28;1184;-75
2022/06/09 16:40:10;;;;;;;;;;;;;;;;;;5082765;28;1898;-75
2022/06/09 16:42:35;;;;;;;;;;;;;;;;;;5080473;28;1199;-74
2022/06/09 16:45:00;;;;;;;;;;;;;;;;;;5082271;28;1136;-74
2022/06/09 16:47:26;;;;;;;;;;;;;;;;;;5065369;28;1334;-74
2022/06/09 16:49:52;;;;;;;;;;;;;;;;;;5048769;28;1328;-75
2022/06/09 16:52:17;;;;;;;;;;;;;;;;;;5061368;28;1336;-74
2022/06/09 16:54:43;;;;;;;;;;;;;;;;;;5075312;28;1293;-77
2022/06/09 16:57:08;;;;;;;;;;;;;;;;;;5063439;28;1381;-75
2022/06/09 16:59:34;;;;;;;;;;;;;;;;;;5062157;28;1587;-74
2022/06/09 17:02:00;;;;;;;;;;;;;;;;;;5071749;28;1910;-75
2022/06/09 17:04:26;;;;;;;;;;;;;;;;;;5081978;28;1221;-74
2022/06/09 17:06:54;;;;;;;;;;;;;;;;;;5083548;28;1186;-75
2022/06/09 17:09:19;;;;;;;;;;;;;;;;;;5079110;28;1378;-75
2022/06/09 17:11:45;;;;;;;;;;;;;;;;;;5065197;28;1158;-76
2022/06/09 17:14:11;;;;;;;;;;;;;;;;;;5061822;28;1296;-74
2022/06/09 17:16:36;;;;;;;;;;;;;;;;;;5063115;28;1288;-74
2022/06/09 17:19:05;;;;;;;;;;;;;;;;;;5047896;28;1183;-75
2022/06/09 17:21:31;;;;;;;;;;;;;;;;;;5059692;28;1902;-75
2022/06/09 17:23:56;;;;;;;;;;;;;;;;;;5070512;28;1274;-75
2022/06/09 17:26:22;;;;;;;;;;;;;;;;;;5082215;28;1190;-75
2022/06/09 17:28:50;;;;;;;;;;;;;;;;;;5053218;28;1226;-75
2022/06/09 17:31:19;;;;;;;;;;;;;;;;;;5064799;28;1189;-75
2022/06/09 17:33:46;;;;;;;;;;;;;;;;;;5065283;28;1491;-75
2022/06/09 17:36:11;;;;;;;;;;;;;;;;;;5062588;28;1209;-76